Alice, Texas
Current Conditions -  °F | °C
As of 3:53 AM on Monday 22 Dec 2014 (Local Time) from KALI Reporting Station
Overcast Overcast  
Wind Chill: 62°   Ceiling: 400
Heat Index: 62°   Visibility: 10mi
Dew Point: 59°   Wind: 9mph
Humidity: 90%   Direction: 210°SSW
Pressure: 29.79"   Gusts: NA
Location:  27.75°N, 98.06°W
Report Text: KALI 220953Z AUTO 21008KT 10SM OVC004 17/15 A2979 RMK AO2 SLP087 T01670150
Loading
Personal Weather Stations






























Interactive Weather Map New forecast layout! Learn more

10-Day Weather Forecast

Advertisements
Track Severe Weather on mobile